Time;durP1;ratioP1;P1;durP2;ratioP2;P2;SDS_P1;SDS_P2;PMS_P1;PMS_P2;Temp;Humidity;BMP_temperature;BMP_pressure;BME280_temperature;BME280_humidity;BME280_pressure;Samples;Min_cycle;Max_cycle;Signal;HPM_P1;HPM_P2
2021/05/20 00:01:19;;;;;;;1.80;0.65;;;14.20;96.70;;;;;;5098770;28;20092;-76
2021/05/20 00:03:48;;;;;;;1.20;0.65;;;14.10;96.70;;;;;;5100671;28;20043;-76
2021/05/20 00:06:18;;;;;;;0.95;0.50;;;14.20;96.70;;;;;;5099724;28;20048;-76
2021/05/20 00:08:46;;;;;;;3.05;0.80;;;14.20;96.70;;;;;;5099215;28;20043;-76
2021/05/20 00:11:15;;;;;;;2.38;0.63;;;14.00;96.70;;;;;;5100301;28;20119;-76
2021/05/20 00:13:43;;;;;;;0.70;0.43;;;14.10;96.70;;;;;;5095963;27;20039;-76
2021/05/20 00:16:11;;;;;;;0.77;0.40;;;14.20;96.70;;;;;;5099260;28;20067;-76
2021/05/20 00:18:41;;;;;;;1.38;0.50;;;14.20;96.70;;;;;;5099094;27;20039;-76
2021/05/20 00:21:11;;;;;;;2.42;0.50;;;14.20;96.70;;;;;;5097344;28;20054;-76
2021/05/20 00:23:41;;;;;;;1.15;0.73;;;14.20;96.70;;;;;;5097771;28;20044;-76
2021/05/20 00:26:12;;;;;;;1.58;0.52;;;14.20;96.70;;;;;;5094863;28;20044;-75
2021/05/20 00:28:46;;;;;;;0.80;0.50;;;14.30;96.70;;;;;;5101543;28;20136;-76
2021/05/20 00:31:15;;;;;;;2.35;0.80;;;14.30;96.70;;;;;;5095475;28;20552;-76
2021/05/20 00:33:46;;;;;;;2.90;0.55;;;14.30;96.70;;;;;;5093167;28;20489;-76
2021/05/20 00:36:14;;;;;;;1.38;0.70;;;14.20;96.70;;;;;;5097535;28;20059;-76
2021/05/20 00:38:42;;;;;;;0.85;0.60;;;14.20;96.70;;;;;;5095103;28;20044;-76
2021/05/20 00:41:11;;;;;;;2.35;0.60;;;14.30;96.70;;;;;;5089861;28;20039;-76
2021/05/20 00:43:41;;;;;;;0.88;0.47;;;14.20;96.70;;;;;;5102872;28;20050;-75
2021/05/20 00:46:13;;;;;;;1.30;0.40;;;14.20;96.70;;;;;;5099754;28;20476;-76
2021/05/20 00:48:42;;;;;;;3.47;0.50;;;14.20;96.70;;;;;;5098339;28;20051;-76
2021/05/20 00:51:13;;;;;;;2.17;0.40;;;14.20;96.70;;;;;;5098730;28;20127;-76
2021/05/20 00:53:45;;;;;;;2.15;0.60;;;14.10;96.70;;;;;;5100066;28;20264;-76
2021/05/20 00:56:15;;;;;;;1.10;0.50;;;13.90;96.70;;;;;;5095540;28;20047;-75
2021/05/20 00:58:48;;;;;;;0.70;0.40;;;13.80;96.70;;;;;;5094279;28;20469;-76
2021/05/20 01:01:19;;;;;;;2.40;0.60;;;13.80;96.70;;;;;;5096538;28;20059;-75
2021/05/20 01:03:51;;;;;;;1.38;0.40;;;13.90;96.70;;;;;;5083144;28;20121;-75
2021/05/20 01:06:24;;;;;;;1.58;0.65;;;14.00;96.70;;;;;;5083454;28;20043;-75
2021/05/20 01:08:59;;;;;;;1.45;0.40;;;14.00;96.70;;;;;;5099403;28;20043;-76
2021/05/20 01:11:32;;;;;;;0.80;0.30;;;13.90;96.70;;;;;;5090968;28;20572;-75
2021/05/20 01:14:03;;;;;;;1.67;0.40;;;13.90;96.70;;;;;;5081271;28;20039;-75
2021/05/20 01:16:41;;;;;;;0.82;0.70;;;14.00;96.70;;;;;;5099442;28;20626;-75
2021/05/20 01:19:26;;;;;;;1.30;0.60;;;14.00;96.70;;;;;;5101421;28;20040;-76
2021/05/20 01:22:17;;;;;;;1.13;0.40;;;13.90;96.70;;;;;;5106743;28;20050;-77
2021/05/20 01:25:00;;;;;;;2.58;0.70;;;13.90;96.70;;;;;;5101872;28;20043;-75
2021/05/20 01:27:40;;;;;;;3.25;0.50;;;14.00;96.70;;;;;;5103358;28;20382;-76
2021/05/20 01:30:12;;;;;;;1.58;0.43;;;13.90;96.70;;;;;;5102679;28;20042;-76
2021/05/20 01:32:43;;;;;;;0.50;0.25;;;13.90;96.70;;;;;;5102054;28;20171;-75
2021/05/20 01:35:14;;;;;;;0.70;0.30;;;13.70;96.70;;;;;;5102787;28;20042;-75
2021/05/20 01:37:44;;;;;;;1.35;0.20;;;13.70;96.70;;;;;;5101857;28;20048;-76
2021/05/20 01:40:14;;;;;;;3.08;0.43;;;13.80;96.70;;;;;;5099738;28;20043;-76
2021/05/20 01:42:42;;;;;;;2.88;0.35;;;13.80;96.70;;;;;;5102598;28;20048;-75
2021/05/20 01:45:10;;;;;;;2.00;0.57;;;13.70;96.70;;;;;;5100788;28;20501;-75
2021/05/20 01:47:38;;;;;;;0.50;0.20;;;13.60;96.70;;;;;;5100075;28;20632;-75
2021/05/20 01:50:08;;;;;;;1.05;0.40;;;13.70;96.70;;;;;;5095782;28;20707;-75
2021/05/20 01:52:36;;;;;;;1.08;0.28;;;13.60;96.70;;;;;;5099261;28;20043;-75
2021/05/20 01:55:12;;;;;;;1.65;0.22;;;13.60;96.70;;;;;;5102778;28;20520;-75
2021/05/20 01:57:41;;;;;;;0.80;0.20;;;13.50;96.70;;;;;;5097355;28;20044;-76
2021/05/20 02:00:28;;;;;;;1.42;0.20;;;13.50;96.70;;;;;;5085760;28;20215;-75
2021/05/20 02:02:57;;;;;;;0.47;0.20;;;13.50;96.70;;;;;;5097332;28;20044;-75
2021/05/20 02:05:25;;;;;;;1.25;0.20;;;13.40;96.70;;;;;;5105166;28;20055;-75
2021/05/20 02:07:54;;;;;;;0.50;0.28;;;13.40;96.70;;;;;;5094943;28;20135;-75
2021/05/20 02:10:59;;;;;;;0.50;0.20;;;13.40;96.70;;;;;;5109706;27;20089;-75
2021/05/20 02:13:30;;;;;;;0.55;0.30;;;13.40;96.70;;;;;;5097916;27;20101;-76
2021/05/20 02:16:03;;;;;;;1.02;0.20;;;13.40;96.70;;;;;;5102356;27;20416;-76
2021/05/20 02:18:45;;;;;;;0.57;0.30;;;13.40;96.70;;;;;;5089403;28;20044;-77
2021/05/20 02:21:22;;;;;;;1.33;0.50;;;13.30;96.70;;;;;;5102425;28;20074;-77
2021/05/20 02:23:54;;;;;;;1.20;0.28;;;13.20;96.70;;;;;;5098130;28;20055;-76
2021/05/20 02:26:26;;;;;;;1.33;0.20;;;13.30;96.70;;;;;;5082891;28;20527;-76
2021/05/20 02:28:57;;;;;;;1.65;0.20;;;13.30;96.70;;;;;;5103201;28;20509;-76
2021/05/20 02:31:27;;;;;;;0.40;0.20;;;13.20;96.70;;;;;;5098854;28;20047;-76
2021/05/20 02:33:58;;;;;;;1.25;0.50;;;13.20;96.70;;;;;;5104562;28;20485;-76
2021/05/20 02:36:28;;;;;;;0.80;0.20;;;13.20;96.70;;;;;;5102343;28;20518;-76
2021/05/20 02:38:57;;;;;;;0.73;0.20;;;13.10;96.70;;;;;;5102672;28;20039;-76
2021/05/20 02:41:27;;;;;;;0.95;0.20;;;13.20;96.70;;;;;;5097111;28;20443;-76
2021/05/20 02:43:57;;;;;;;1.70;0.45;;;13.20;96.70;;;;;;5102194;28;20385;-76
2021/05/20 02:46:26;;;;;;;1.77;0.20;;;13.20;96.70;;;;;;5095862;28;20083;-75
2021/05/20 02:48:55;;;;;;;0.45;0.20;;;13.20;96.70;;;;;;5101916;28;20149;-76
2021/05/20 02:51:30;;;;;;;1.25;0.40;;;13.10;96.70;;;;;;5079241;28;20040;-76
2021/05/20 02:54:00;;;;;;;0.40;0.20;;;13.10;96.70;;;;;;5092155;28;20145;-76
2021/05/20 02:56:29;;;;;;;2.10;0.30;;;13.10;96.70;;;;;;5097993;28;20059;-76
2021/05/20 02:58:59;;;;;;;1.27;0.30;;;13.20;96.70;;;;;;5102741;28;20047;-76
2021/05/20 03:01:28;;;;;;;0.55;0.20;;;13.20;96.70;;;;;;5101842;28;20058;-76
2021/05/20 03:03:58;;;;;;;0.95;0.30;;;13.30;96.70;;;;;;5102477;27;20044;-76
2021/05/20 03:06:28;;;;;;;1.05;0.30;;;13.20;96.70;;;;;;5098145;28;20047;-76
2021/05/20 03:08:57;;;;;;;2.15;0.20;;;13.20;96.70;;;;;;5099905;28;20040;-76
2021/05/20 03:11:27;;;;;;;1.90;0.30;;;13.30;96.70;;;;;;5095521;28;20047;-76
2021/05/20 03:13:56;;;;;;;1.65;0.30;;;13.20;96.70;;;;;;5101838;27;20043;-76
2021/05/20 03:16:26;;;;;;;1.38;0.25;;;13.20;96.70;;;;;;5083965;28;20609;-76
2021/05/20 03:18:54;;;;;;;2.47;0.30;;;13.20;96.70;;;;;;5100564;28;20035;-76
2021/05/20 03:21:26;;;;;;;0.90;0.30;;;13.20;96.70;;;;;;5084068;28;20179;-76
2021/05/20 03:23:57;;;;;;;0.95;0.25;;;13.10;96.70;;;;;;5101070;28;20088;-75
2021/05/20 03:26:26;;;;;;;2.50;0.30;;;13.00;96.70;;;;;;5083827;28;20139;-75
2021/05/20 03:28:55;;;;;;;3.63;0.30;;;13.10;96.70;;;;;;5087234;28;20032;-76
2021/05/20 03:31:26;;;;;;;2.35;0.20;;;13.10;96.70;;;;;;5102151;28;20048;-76
2021/05/20 03:33:56;;;;;;;0.63;0.20;;;13.10;96.70;;;;;;5077956;28;20147;-76
2021/05/20 03:36:25;;;;;;;0.82;0.20;;;13.00;96.70;;;;;;5100896;28;20036;-76
2021/05/20 03:38:55;;;;;;;0.85;0.35;;;12.90;96.70;;;;;;5095384;28;20461;-76
2021/05/20 03:41:24;;;;;;;0.98;0.30;;;12.80;96.70;;;;;;5102562;28;20491;-76
2021/05/20 03:43:54;;;;;;;0.70;0.43;;;12.80;96.70;;;;;;5096520;28;20146;-76
2021/05/20 03:46:31;;;;;;;1.95;1.10;;;12.80;96.70;;;;;;5103732;28;20043;-76
2021/05/20 03:49:00;;;;;;;1.70;0.30;;;12.80;96.70;;;;;;5081289;28;20121;-76
2021/05/20 03:51:29;;;;;;;0.60;0.30;;;12.70;96.70;;;;;;5094736;28;20472;-76
2021/05/20 03:53:57;;;;;;;0.73;0.30;;;12.70;96.70;;;;;;5094189;28;20533;-76
2021/05/20 03:56:26;;;;;;;0.47;0.20;;;12.70;96.70;;;;;;5097381;28;20875;-76
2021/05/20 03:58:54;;;;;;;2.22;0.45;;;12.70;96.70;;;;;;5081456;28;20059;-76
2021/05/20 04:01:24;;;;;;;2.17;0.20;;;12.70;96.70;;;;;;5101412;28;20050;-75
2021/05/20 04:03:54;;;;;;;2.47;0.25;;;12.80;96.70;;;;;;5100564;28;20042;-76
2021/05/20 04:06:24;;;;;;;1.00;0.20;;;12.80;96.70;;;;;;5100940;28;20089;-76
2021/05/20 04:08:53;;;;;;;1.67;0.32;;;12.70;96.70;;;;;;5092957;28;20047;-76
2021/05/20 04:11:23;;;;;;;1.27;0.22;;;12.70;96.70;;;;;;5102191;28;20043;-76
2021/05/20 04:13:51;;;;;;;1.27;0.30;;;12.70;96.70;;;;;;5089010;27;20580;-76
2021/05/20 04:19:57;;;;;;;2.67;0.40;;;12.60;96.70;;;;;;5097812;28;20054;-75
2021/05/20 04:22:26;;;;;;;0.60;0.20;;;12.60;96.70;;;;;;5102939;27;20059;-75
2021/05/20 04:24:55;;;;;;;1.85;0.30;;;12.50;96.70;;;;;;5101309;28;20708;-75
2021/05/20 04:27:24;;;;;;;2.30;0.38;;;12.50;96.70;;;;;;5099124;28;20040;-75
2021/05/20 04:29:56;;;;;;;2.50;0.40;;;12.40;96.70;;;;;;5099632;28;20039;-76
2021/05/20 04:32:25;;;;;;;4.85;0.45;;;12.50;96.70;;;;;;5099648;28;20493;-76
2021/05/20 04:34:55;;;;;;;0.70;0.30;;;12.60;96.70;;;;;;5082972;28;20437;-76
2021/05/20 04:37:26;;;;;;;2.30;0.30;;;12.70;96.70;;;;;;5100272;28;20043;-75
2021/05/20 04:39:56;;;;;;;2.97;0.38;;;12.80;96.70;;;;;;5100948;28;20052;-75
2021/05/20 04:42:25;;;;;;;1.23;0.50;;;12.90;96.70;;;;;;5098212;28;20071;-76
2021/05/20 04:44:55;;;;;;;4.22;0.50;;;12.90;96.70;;;;;;5098900;28;20043;-76
2021/05/20 04:47:25;;;;;;;2.83;0.60;;;12.90;96.70;;;;;;5095088;28;20146;-75
2021/05/20 04:49:55;;;;;;;2.10;0.30;;;13.00;96.70;;;;;;5096173;28;20100;-75
2021/05/20 04:52:26;;;;;;;2.35;0.60;;;13.00;96.70;;;;;;5095453;28;20040;-76
2021/05/20 04:54:56;;;;;;;1.52;0.30;;;13.10;96.70;;;;;;5097582;28;20565;-75
2021/05/20 04:57:25;;;;;;;4.18;0.50;;;13.10;96.70;;;;;;5100280;28;20036;-75
2021/05/20 04:59:55;;;;;;;2.53;0.55;;;13.10;96.70;;;;;;5096593;28;20404;-76
2021/05/20 05:02:23;;;;;;;0.60;0.38;;;13.10;96.70;;;;;;5100284;28;20043;-75
2021/05/20 05:04:52;;;;;;;2.83;0.30;;;13.20;96.70;;;;;;5080641;28;20063;-75
2021/05/20 05:07:20;;;;;;;2.45;0.40;;;12.90;96.70;;;;;;5100286;28;20105;-75
2021/05/20 05:09:50;;;;;;;0.57;0.30;;;13.00;96.70;;;;;;5098597;28;20079;-76
2021/05/20 05:12:18;;;;;;;1.65;0.47;;;13.00;96.70;;;;;;5103580;28;20035;-75
2021/05/20 05:14:46;;;;;;;0.82;0.22;;;13.00;96.70;;;;;;5098287;28;20096;-75
2021/05/20 05:17:15;;;;;;;1.70;0.40;;;12.90;96.70;;;;;;5100815;28;20046;-75
2021/05/20 05:19:43;;;;;;;0.50;0.50;;;13.00;96.70;;;;;;5099943;28;20043;-75
2021/05/20 05:22:12;;;;;;;1.88;0.55;;;13.10;96.70;;;;;;5102439;28;20368;-75
2021/05/20 05:24:41;;;;;;;4.00;0.60;;;12.90;96.70;;;;;;5096085;28;20036;-76
2021/05/20 05:27:10;;;;;;;2.70;0.70;;;13.00;96.70;;;;;;5101810;28;20254;-75
2021/05/20 05:29:39;;;;;;;0.65;0.40;;;13.10;96.70;;;;;;5098830;28;20507;-75
2021/05/20 05:32:07;;;;;;;1.95;0.40;;;13.10;96.70;;;;;;5100163;28;20408;-76
2021/05/20 05:34:35;;;;;;;1.60;0.40;;;13.30;96.70;;;;;;5096047;28;20045;-76
2021/05/20 05:37:04;;;;;;;2.83;0.40;;;13.40;96.70;;;;;;5100624;28;20050;-75
2021/05/20 05:39:33;;;;;;;2.22;0.47;;;13.40;96.70;;;;;;5094543;28;20040;-75
2021/05/20 05:42:01;;;;;;;3.10;0.60;;;13.30;96.70;;;;;;5100527;28;20930;-76
2021/05/20 05:44:30;;;;;;;1.52;0.32;;;13.50;96.70;;;;;;5097803;28;20039;-75
2021/05/20 05:46:59;;;;;;;1.67;0.50;;;13.60;96.70;;;;;;5101633;28;20131;-76
2021/05/20 05:49:29;;;;;;;1.60;0.50;;;13.70;96.70;;;;;;5097688;28;20035;-75
2021/05/20 05:52:04;;;;;;;1.10;0.40;;;13.70;96.70;;;;;;5100532;28;20100;-75
2021/05/20 05:54:32;;;;;;;1.02;0.50;;;13.70;96.70;;;;;;5092636;28;20055;-76
2021/05/20 05:57:00;;;;;;;1.48;0.40;;;13.90;96.70;;;;;;5094263;28;20040;-75
2021/05/20 05:59:30;;;;;;;0.50;0.40;;;13.90;96.70;;;;;;5099347;28;20044;-76
2021/05/20 06:01:59;;;;;;;2.72;0.60;;;13.80;96.70;;;;;;5090024;28;20485;-76
2021/05/20 06:04:28;;;;;;;2.38;0.38;;;13.80;96.70;;;;;;5099855;28;20143;-76
2021/05/20 06:06:57;;;;;;;1.25;0.40;;;13.90;96.70;;;;;;5110426;27;20035;-75
2021/05/20 06:09:25;;;;;;;0.98;0.40;;;14.00;96.70;;;;;;5101178;28;20052;-76
2021/05/20 06:11:54;;;;;;;1.20;0.40;;;14.00;96.70;;;;;;5099817;28;20495;-75
2021/05/20 06:14:22;;;;;;;3.60;0.45;;;14.10;96.70;;;;;;5082693;28;20120;-76
2021/05/20 06:16:51;;;;;;;2.45;0.43;;;14.10;96.70;;;;;;5099113;28;20064;-76
2021/05/20 06:19:19;;;;;;;1.55;0.50;;;14.20;96.70;;;;;;5103702;28;20044;-76
2021/05/20 06:21:47;;;;;;;0.40;0.30;;;14.20;96.70;;;;;;5100681;28;20049;-76
2021/05/20 06:24:16;;;;;;;0.73;0.40;;;14.20;96.70;;;;;;5101191;28;20044;-76
2021/05/20 06:26:44;;;;;;;1.10;0.43;;;14.20;96.70;;;;;;5101609;27;20097;-76
2021/05/20 06:29:12;;;;;;;1.02;0.40;;;14.10;96.70;;;;;;5103456;28;20215;-76
2021/05/20 06:31:40;;;;;;;2.25;0.45;;;14.20;96.70;;;;;;5098522;28;20446;-76
2021/05/20 06:34:09;;;;;;;1.48;0.38;;;14.30;96.70;;;;;;5099821;28;20058;-76
2021/05/20 06:36:38;;;;;;;4.00;0.40;;;14.30;96.70;;;;;;5102099;28;20035;-75
2021/05/20 06:39:08;;;;;;;1.48;0.32;;;14.40;96.70;;;;;;5101826;28;20453;-75
2021/05/20 06:41:36;;;;;;;1.27;0.20;;;14.40;96.70;;;;;;5098850;28;20047;-76
2021/05/20 06:44:05;;;;;;;1.35;0.22;;;14.40;96.70;;;;;;5082720;28;20458;-76
2021/05/20 06:46:34;;;;;;;0.73;0.30;;;14.40;96.70;;;;;;5099348;28;20519;-76
2021/05/20 06:49:03;;;;;;;0.88;0.32;;;14.60;96.70;;;;;;5101109;28;20046;-76
2021/05/20 06:51:32;;;;;;;2.25;0.30;;;14.60;96.70;;;;;;5101219;28;20130;-77
2021/05/20 06:54:02;;;;;;;0.75;0.30;;;14.70;96.70;;;;;;5101918;28;20416;-76
2021/05/20 06:56:32;;;;;;;2.30;0.38;;;14.80;96.70;;;;;;5096442;28;20044;-76
2021/05/20 07:01:48;;;;;;;0.40;0.20;;;14.80;96.70;;;;;;5093357;28;20035;-76
2021/05/20 07:04:16;;;;;;;2.00;0.30;;;14.90;96.70;;;;;;5100721;28;20035;-76
2021/05/20 07:06:47;;;;;;;0.68;0.25;;;14.90;96.70;;;;;;5104777;27;20043;-76
2021/05/20 07:09:33;;;;;;;1.23;0.40;;;14.90;96.70;;;;;;5099448;28;20058;-76
2021/05/20 07:12:02;;;;;;;3.22;0.47;;;15.00;96.70;;;;;;5101745;28;20050;-76
2021/05/20 07:14:30;;;;;;;1.40;0.30;;;15.00;96.70;;;;;;5087938;28;20067;-76
2021/05/20 07:16:59;;;;;;;1.80;0.30;;;15.10;96.70;;;;;;5104107;28;20039;-76
2021/05/20 07:19:27;;;;;;;1.58;0.43;;;15.10;96.70;;;;;;5100918;28;20067;-76
2021/05/20 07:21:57;;;;;;;1.33;0.22;;;15.10;96.70;;;;;;5100262;28;20071;-76
2021/05/20 07:24:25;;;;;;;1.25;0.50;;;15.20;96.70;;;;;;5100113;28;20052;-75
2021/05/20 07:26:54;;;;;;;1.83;0.30;;;15.30;96.70;;;;;;5100776;28;20066;-76
2021/05/20 07:29:22;;;;;;;0.70;0.40;;;15.30;96.70;;;;;;5100861;28;20096;-76
2021/05/20 07:31:50;;;;;;;0.57;0.28;;;15.40;96.70;;;;;;5103221;27;20051;-76
2021/05/20 07:34:19;;;;;;;2.72;0.40;;;15.40;96.70;;;;;;5098388;28;20043;-76
2021/05/20 07:36:47;;;;;;;1.08;0.40;;;15.40;96.70;;;;;;5102037;28;20043;-76
2021/05/20 07:39:16;;;;;;;2.17;0.40;;;15.40;96.70;;;;;;5099121;28;20046;-76
2021/05/20 07:41:45;;;;;;;2.58;0.57;;;15.40;96.70;;;;;;5101890;28;20532;-76
2021/05/20 07:44:13;;;;;;;2.83;0.73;;;15.50;96.70;;;;;;5099295;28;20092;-77
2021/05/20 07:46:41;;;;;;;2.08;0.65;;;15.50;96.70;;;;;;5103479;28;20036;-76
2021/05/20 07:49:10;;;;;;;1.75;0.63;;;15.50;96.70;;;;;;5097966;28;20034;-76
2021/05/20 07:51:38;;;;;;;1.92;0.80;;;15.60;96.70;;;;;;5097624;28;20047;-76
2021/05/20 07:54:07;;;;;;;2.28;0.70;;;15.70;96.70;;;;;;5095591;28;20056;-76
2021/05/20 07:56:36;;;;;;;1.10;0.50;;;15.70;96.70;;;;;;5102711;27;20035;-76
2021/05/20 07:59:05;;;;;;;1.30;0.40;;;15.80;96.70;;;;;;5097689;28;20501;-76
2021/05/20 08:01:35;;;;;;;1.92;0.63;;;15.90;96.70;;;;;;5100408;28;20117;-76
2021/05/20 08:04:12;;;;;;;1.35;0.60;;;16.00;96.70;;;;;;5100384;28;20244;-76
2021/05/20 08:06:46;;;;;;;1.33;0.60;;;15.90;96.70;;;;;;5099289;28;20047;-77
2021/05/20 08:11:46;;;;;;;1.00;0.60;;;16.00;96.70;;;;;;5101060;28;20051;-76
2021/05/20 08:14:14;;;;;;;1.38;0.55;;;16.10;96.70;;;;;;5096297;27;20443;-76
2021/05/20 08:16:43;;;;;;;2.97;1.00;;;16.20;96.70;;;;;;5102073;28;20492;-76
2021/05/20 08:19:11;;;;;;;1.33;0.50;;;16.30;96.70;;;;;;5093087;28;20027;-76
2021/05/20 08:21:40;;;;;;;3.38;0.90;;;16.40;96.70;;;;;;5097654;28;20049;-76
2021/05/20 08:24:09;;;;;;;2.63;0.88;;;16.40;96.70;;;;;;5093698;28;20081;-76
2021/05/20 08:26:37;;;;;;;1.67;0.70;;;16.50;96.70;;;;;;5098055;28;20134;-76
2021/05/20 08:29:07;;;;;;;1.98;0.60;;;16.50;96.70;;;;;;5098127;28;20051;-77
2021/05/20 08:31:35;;;;;;;1.80;0.60;;;16.50;96.70;;;;;;5081104;28;20193;-76
2021/05/20 08:34:04;;;;;;;1.38;0.60;;;16.50;96.70;;;;;;5098679;28;20040;-77
2021/05/20 08:36:33;;;;;;;1.73;0.60;;;16.60;96.70;;;;;;5097619;28;20123;-76
2021/05/20 08:39:02;;;;;;;2.78;0.50;;;16.70;96.70;;;;;;5095948;28;20047;-76
2021/05/20 08:41:30;;;;;;;2.38;0.65;;;16.90;96.70;;;;;;5096739;28;20123;-77
2021/05/20 08:44:11;;;;;;;3.42;0.70;;;17.00;96.70;;;;;;5096899;28;20424;-77
2021/05/20 08:46:39;;;;;;;2.13;0.70;;;17.10;96.70;;;;;;5100617;28;20536;-77
2021/05/20 08:49:14;;;;;;;2.47;0.63;;;17.10;96.70;;;;;;5103356;27;20043;-76
2021/05/20 08:51:44;;;;;;;1.05;0.50;;;17.00;96.70;;;;;;5094361;28;20044;-76
2021/05/20 08:54:14;;;;;;;1.58;0.40;;;16.90;96.70;;;;;;5099628;28;20051;-77
2021/05/20 08:56:44;;;;;;;2.03;0.60;;;17.10;96.70;;;;;;5098090;28;20125;-77
2021/05/20 08:59:14;;;;;;;2.78;0.70;;;17.10;96.70;;;;;;5101637;28;20043;-77
2021/05/20 09:01:43;;;;;;;2.47;0.70;;;17.20;96.70;;;;;;5090236;28;20098;-77
2021/05/20 09:04:12;;;;;;;1.25;0.80;;;17.40;96.70;;;;;;5100913;28;20059;-77
2021/05/20 09:06:43;;;;;;;2.63;0.40;;;17.50;96.70;;;;;;5101212;28;20048;-77
2021/05/20 09:09:17;;;;;;;4.75;0.60;;;17.60;96.70;;;;;;5101122;28;20039;-77
2021/05/20 09:11:51;;;;;;;1.70;0.60;;;17.60;96.70;;;;;;5079624;28;20170;-76
2021/05/20 09:14:31;;;;;;;2.10;0.68;;;17.60;96.70;;;;;;5099461;28;20054;-77
2021/05/20 09:17:11;;;;;;;1.58;0.50;;;17.60;96.70;;;;;;5099547;28;20047;-76
2021/05/20 09:19:41;;;;;;;1.77;0.40;;;17.90;96.70;;;;;;5095463;28;20048;-76
2021/05/20 09:22:12;;;;;;;1.77;0.57;;;18.00;96.70;;;;;;5100381;28;20044;-77
2021/05/20 09:24:45;;;;;;;1.90;0.70;;;18.10;96.70;;;;;;5093669;28;20136;-77
2021/05/20 09:27:27;;;;;;;1.88;0.32;;;18.20;96.70;;;;;;5095168;28;20047;-77
2021/05/20 09:30:17;;;;;;;0.95;0.40;;;18.20;96.70;;;;;;5096392;28;20468;-77
2021/05/20 09:32:49;;;;;;;2.58;0.60;;;18.30;96.70;;;;;;5099592;28;20044;-76
2021/05/20 09:35:19;;;;;;;2.30;0.60;;;18.40;96.70;;;;;;5094051;28;20043;-77
2021/05/20 09:37:53;;;;;;;2.05;0.82;;;18.40;96.70;;;;;;5103198;28;20493;-76
2021/05/20 09:40:25;;;;;;;1.92;0.32;;;18.50;96.70;;;;;;5083704;28;20044;-76
2021/05/20 09:42:54;;;;;;;1.95;0.50;;;18.60;96.70;;;;;;5103531;28;20109;-76
2021/05/20 09:45:26;;;;;;;2.35;0.57;;;18.70;96.40;;;;;;5115127;27;20134;-77
2021/05/20 09:48:04;;;;;;;4.13;0.80;;;18.70;96.70;;;;;;5100613;28;20104;-76
2021/05/20 09:50:38;;;;;;;4.45;0.80;;;18.90;96.10;;;;;;5105819;28;20051;-76
2021/05/20 09:53:11;;;;;;;2.38;0.57;;;19.00;96.70;;;;;;5103952;28;20563;-76
2021/05/20 09:55:53;;;;;;;2.33;0.65;;;19.10;95.90;;;;;;5104980;28;20055;-76
2021/05/20 09:58:26;;;;;;;3.55;0.55;;;19.30;96.30;;;;;;5102255;28;20042;-77
2021/05/20 10:00:56;;;;;;;3.22;0.60;;;19.30;95.00;;;;;;5103678;28;20282;-77
2021/05/20 10:03:27;;;;;;;1.95;0.75;;;19.40;94.10;;;;;;5101763;28;20398;-76
2021/05/20 10:05:59;;;;;;;3.25;0.63;;;19.50;93.30;;;;;;5105449;28;20067;-77
2021/05/20 10:08:32;;;;;;;1.50;0.57;;;19.60;95.10;;;;;;5099170;28;20044;-77
2021/05/20 10:11:01;;;;;;;2.13;0.60;;;19.90;93.70;;;;;;5102858;28;20082;-77
2021/05/20 10:13:30;;;;;;;4.00;0.77;;;19.90;93.10;;;;;;5098778;27;20504;-76
2021/05/20 10:16:01;;;;;;;3.10;0.70;;;19.80;93.90;;;;;;5105238;27;20058;-77
2021/05/20 10:18:29;;;;;;;1.38;0.60;;;19.80;93.90;;;;;;5083318;28;20047;-77
2021/05/20 10:21:00;;;;;;;3.58;0.70;;;19.80;93.40;;;;;;5109872;27;20152;-77
2021/05/20 10:23:29;;;;;;;2.13;0.82;;;19.80;93.70;;;;;;5099374;28;20520;-77
2021/05/20 10:25:59;;;;;;;1.52;0.40;;;20.10;93.40;;;;;;5104420;28;20035;-77
2021/05/20 10:28:27;;;;;;;1.83;0.70;;;20.30;93.50;;;;;;5081871;28;20044;-77
2021/05/20 10:30:57;;;;;;;2.88;0.70;;;20.60;94.20;;;;;;5098694;28;20047;-77
2021/05/20 10:33:28;;;;;;;4.57;0.88;;;20.90;93.90;;;;;;5100694;28;20051;-77
2021/05/20 10:35:58;;;;;;;1.70;0.60;;;21.00;93.50;;;;;;5101987;28;20047;-77
2021/05/20 10:38:37;;;;;;;3.78;0.80;;;20.90;92.90;;;;;;5096705;28;20048;-77
2021/05/20 10:41:11;;;;;;;1.75;0.52;;;20.90;92.10;;;;;;5095923;28;20047;-77
2021/05/20 10:43:40;;;;;;;3.17;0.68;;;21.00;92.20;;;;;;5102866;28;20451;-77
2021/05/20 10:46:13;;;;;;;3.60;0.50;;;21.10;91.90;;;;;;5100338;28;20035;-76
2021/05/20 10:48:51;;;;;;;1.70;0.50;;;21.20;91.50;;;;;;5084619;28;20556;-77
2021/05/20 10:51:22;;;;;;;2.13;0.70;;;21.40;90.40;;;;;;5097660;28;20051;-76
2021/05/20 10:54:09;;;;;;;1.45;0.60;;;21.30;91.60;;;;;;5101418;28;20057;-76
2021/05/20 10:57:05;;;;;;;2.08;0.75;;;21.40;91.10;;;;;;5099852;28;20094;-77
2021/05/20 10:59:41;;;;;;;2.83;0.60;;;21.70;91.80;;;;;;5099041;28;20096;-77
2021/05/20 11:02:49;;;;;;;3.85;0.80;;;21.80;89.80;;;;;;5099865;28;20040;-77
2021/05/20 11:05:35;;;;;;;;;;;21.90;89.80;;;;;;5100910;28;20051;-77
2021/05/20 11:08:07;;;;;;;1.17;0.68;;;21.90;89.10;;;;;;5100883;28;19927;-77
2021/05/20 11:10:36;;;;;;;2.70;0.70;;;22.00;89.10;;;;;;5098198;28;20044;-77
2021/05/20 11:13:05;;;;;;;2.33;0.80;;;22.10;89.20;;;;;;5099586;28;20036;-77
2021/05/20 11:15:33;;;;;;;2.72;0.88;;;22.00;88.50;;;;;;5099527;27;20500;-77
2021/05/20 11:18:33;;;;;;;2.55;0.70;;;22.10;88.50;;;;;;5095752;28;20529;-77
2021/05/20 11:21:02;;;;;;;2.47;0.80;;;22.20;88.90;;;;;;5095848;28;20098;-77
2021/05/20 11:23:36;;;;;;;2.80;1.00;;;22.40;89.00;;;;;;5098121;27;20601;-77
2021/05/20 11:26:06;;;;;;;3.88;0.93;;;22.20;88.00;;;;;;5100643;28;20039;-77
2021/05/20 11:28:49;;;;;;;2.30;0.70;;;22.10;87.70;;;;;;5104343;28;20401;-77
2021/05/20 11:31:22;;;;;;;2.25;0.70;;;22.20;87.00;;;;;;5093688;28;20032;-77
2021/05/20 11:34:24;;;;;;;2.05;0.80;;;22.30;85.60;;;;;;5101603;28;20127;-77
2021/05/20 11:36:53;;;;;;;2.00;0.50;;;22.40;85.60;;;;;;5101770;28;20044;-77
2021/05/20 11:39:22;;;;;;;2.92;0.63;;;22.60;86.90;;;;;;5101055;28;20040;-77
2021/05/20 11:41:52;;;;;;;3.35;0.80;;;22.70;86.10;;;;;;5077279;28;20040;-77
2021/05/20 11:44:22;;;;;;;3.92;0.88;;;22.60;85.60;;;;;;5100479;28;20047;-77
2021/05/20 11:47:05;;;;;;;2.22;0.65;;;22.80;85.00;;;;;;5102112;28;20032;-77
2021/05/20 11:49:34;;;;;;;1.17;0.60;;;23.00;86.10;;;;;;5096892;28;20055;-77
2021/05/20 11:52:07;;;;;;;3.33;0.60;;;22.90;86.00;;;;;;5102106;28;20031;-77
2021/05/20 11:54:37;;;;;;;3.10;0.80;;;23.00;84.30;;;;;;5095771;28;20040;-77
2021/05/20 11:57:08;;;;;;;1.40;0.70;;;23.00;83.80;;;;;;5101699;28;20046;-77
2021/05/20 11:59:42;;;;;;;1.20;0.50;;;23.10;84.00;;;;;;5094338;28;20273;-77
2021/05/20 12:02:13;;;;;;;2.63;0.80;;;23.30;83.10;;;;;;5098345;28;20044;-77
2021/05/20 12:04:42;;;;;;;1.75;0.68;;;23.40;83.40;;;;;;5082112;28;20055;-77
2021/05/20 12:07:20;;;;;;;1.70;0.40;;;23.40;82.60;;;;;;5101151;28;20442;-77
2021/05/20 12:09:52;;;;;;;2.08;0.47;;;23.40;80.90;;;;;;5081089;28;20043;-77
2021/05/20 12:12:21;;;;;;;2.53;0.45;;;23.60;79.30;;;;;;5099665;28;20038;-77
2021/05/20 12:14:53;;;;;;;2.63;0.50;;;23.80;80.60;;;;;;5104807;27;20120;-77
2021/05/20 12:17:30;;;;;;;0.80;0.40;;;23.80;77.60;;;;;;5095525;28;20147;-77
2021/05/20 12:19:59;;;;;;;0.70;0.40;;;23.90;77.30;;;;;;5098195;28;20044;-77
2021/05/20 12:22:29;;;;;;;2.47;0.57;;;24.10;76.80;;;;;;5099138;28;20688;-77
2021/05/20 12:25:03;;;;;;;1.83;0.50;;;24.30;77.20;;;;;;5100602;28;20050;-77
2021/05/20 12:27:43;;;;;;;0.88;0.35;;;24.30;75.40;;;;;;5077810;28;20155;-77
2021/05/20 12:30:19;;;;;;;0.85;0.40;;;24.20;73.80;;;;;;5101257;28;20256;-78
2021/05/20 12:32:48;;;;;;;1.95;0.38;;;24.10;73.80;;;;;;5093358;28;20055;-77
2021/05/20 12:35:26;;;;;;;0.95;0.28;;;24.10;75.20;;;;;;5101387;28;20067;-77
2021/05/20 12:38:07;;;;;;;1.10;0.50;;;24.30;74.40;;;;;;5077892;28;20487;-77
2021/05/20 12:40:39;;;;;;;3.17;0.30;;;24.40;73.90;;;;;;5077520;28;20044;-78
2021/05/20 12:43:16;;;;;;;1.17;0.40;;;24.30;72.70;;;;;;5096226;28;20489;-77
2021/05/20 12:45:53;;;;;;;2.50;0.20;;;24.30;71.90;;;;;;5100434;28;20046;-77
2021/05/20 12:48:23;;;;;;;0.47;0.32;;;24.30;71.30;;;;;;5091983;28;20105;-77
2021/05/20 12:50:52;;;;;;;4.10;0.50;;;24.40;72.00;;;;;;5100386;28;20042;-77
2021/05/20 12:53:33;;;;;;;0.80;0.30;;;24.50;75.40;;;;;;5096183;28;20079;-77
2021/05/20 12:56:05;;;;;;;3.45;0.45;;;24.60;76.20;;;;;;5095436;28;20719;-78
2021/05/20 12:58:50;;;;;;;2.17;0.63;;;24.60;75.90;;;;;;5096771;28;20512;-77
2021/05/20 13:01:19;;;;;;;8.60;0.55;;;24.50;77.10;;;;;;5097855;28;20067;-77
2021/05/20 13:03:48;;;;;;;4.13;0.57;;;24.50;77.20;;;;;;5100624;28;20043;-78
2021/05/20 13:06:22;;;;;;;2.72;0.50;;;24.40;76.40;;;;;;5097905;28;20093;-77
2021/05/20 13:08:51;;;;;;;1.98;0.50;;;24.80;78.40;;;;;;5100028;28;20044;-78
2021/05/20 13:11:30;;;;;;;1.35;0.50;;;24.80;78.40;;;;;;5099003;28;20032;-78
2021/05/20 13:14:14;;;;;;;0.90;0.50;;;24.90;78.80;;;;;;5105659;28;20035;-78
2021/05/20 13:16:49;;;;;;;3.38;0.88;;;25.00;76.50;;;;;;5079870;28;20532;-78
2021/05/20 13:22:37;;;;;;;3.60;0.73;;;24.90;74.90;;;;;;5098806;28;20097;-77